createdAt,value
2023-02-15T00:03:13.144Z,8.30
2023-02-15T00:08:16.341Z,8.03
2023-02-15T00:13:18.073Z,7.63
2023-02-15T00:18:23.320Z,7.63
2023-02-15T00:23:35.066Z,8.87
2023-02-15T00:28:39.575Z,8.13
2023-02-15T00:33:41.869Z,7.70
2023-02-15T00:38:45.468Z,9.30
2023-02-15T00:43:47.246Z,7.53
2023-02-15T00:48:49.173Z,9.70
2023-02-15T00:59:10.115Z,7.43
2023-02-15T01:04:19.163Z,8.37
2023-02-15T01:09:22.574Z,7.77
2023-02-15T01:14:24.809Z,8.97
2023-02-15T01:19:29.991Z,8.63
2023-02-15T01:24:33.728Z,8.30
2023-02-15T01:29:35.510Z,9.30
2023-02-15T01:34:38.259Z,7.10
2023-02-15T01:39:41.764Z,8.53
2023-02-15T01:44:57.748Z,9.40
2023-02-15T01:50:15.596Z,11.40
2023-02-15T01:55:20.210Z,8.67
2023-02-15T02:00:37.757Z,8.47
2023-02-15T02:05:46.772Z,8.93
2023-02-15T02:11:15.023Z,8.10
2023-02-15T02:16:24.538Z,8.40
2023-02-15T02:21:52.293Z,9.03
2023-02-15T02:27:42.403Z,8.87
2023-02-15T02:33:21.716Z,8.63
2023-02-15T02:38:34.047Z,9.43
2023-02-15T02:43:44.813Z,9.30
2023-02-15T02:48:50.241Z,8.70
2023-02-15T02:54:00.513Z,9.43
2023-02-15T02:59:08.282Z,8.87
2023-02-15T03:04:16.572Z,8.80
2023-02-15T03:09:26.089Z,9.03
2023-02-15T03:14:29.333Z,9.87
2023-02-15T03:19:37.845Z,8.57
2023-02-15T03:24:45.242Z,8.23
2023-02-15T03:29:51.373Z,8.70
2023-02-15T03:34:55.306Z,9.83
2023-02-15T03:40:02.138Z,7.30
2023-02-15T03:45:10.668Z,5.90
2023-02-15T03:50:19.143Z,7.87
2023-02-15T03:55:21.610Z,7.13
2023-02-15T04:00:26.157Z,6.57
2023-02-15T04:05:29.670Z,6.90
2023-02-15T04:10:31.816Z,7.37
2023-02-15T04:15:33.926Z,7.20
2023-02-15T04:20:37.461Z,6.50
2023-02-15T04:25:39.575Z,6.90
2023-02-15T04:30:42.031Z,7.13
2023-02-15T04:35:45.938Z,7.60
2023-02-15T04:40:51.252Z,8.43
2023-02-15T04:45:53.242Z,9.27
2023-02-15T04:50:56.993Z,8.43
2023-02-15T04:55:59.163Z,10.00
2023-02-15T05:01:01.663Z,12.67
2023-02-15T05:06:05.544Z,12.50
2023-02-15T05:11:07.666Z,12.77
2023-02-15T05:16:09.559Z,14.80
2023-02-15T05:21:13.188Z,15.23
2023-02-15T05:26:18.773Z,13.20
2023-02-15T05:31:21.572Z,13.97
2023-02-15T05:36:24.922Z,13.90
2023-02-15T05:41:27.504Z,12.20
2023-02-15T05:46:29.673Z,13.17
2023-02-15T05:51:33.441Z,11.83
2023-02-15T05:56:35.943Z,12.00
2023-02-15T06:01:37.830Z,12.13
2023-02-15T06:06:41.271Z,12.03
2023-02-15T06:11:43.908Z,11.07
2023-02-15T06:16:45.764Z,12.63
2023-02-15T06:21:49.708Z,13.70
2023-02-15T06:26:51.841Z,12.77
2023-02-15T06:31:54.309Z,14.27
2023-02-15T06:36:58.214Z,12.17
2023-02-15T06:42:00.482Z,13.20
2023-02-15T06:47:02.998Z,13.90
2023-02-15T06:52:07.383Z,12.23
2023-02-15T06:57:09.426Z,10.53
2023-02-15T07:02:14.725Z,11.70
2023-02-15T07:07:18.047Z,13.37
2023-02-15T07:12:20.277Z,14.43
2023-02-15T07:17:37.474Z,12.93
2023-02-15T07:22:41.127Z,13.63
2023-02-15T07:27:46.399Z,14.40
2023-02-15T07:32:48.539Z,14.67
2023-02-15T07:37:51.813Z,13.20
2023-02-15T07:42:54.110Z,12.90
2023-02-15T07:47:56.088Z,13.80
2023-02-15T07:52:59.730Z,15.20
2023-02-15T07:58:02.171Z,16.70
2023-02-15T08:03:04.815Z,15.37
2023-02-15T08:08:08.841Z,15.63
2023-02-15T08:13:10.724Z,16.00
2023-02-15T08:18:12.978Z,15.63
2023-02-15T08:23:16.704Z,14.47
2023-02-15T08:28:18.795Z,16.57
2023-02-15T08:33:20.878Z,15.17
2023-02-15T08:38:24.479Z,13.43
2023-02-15T08:43:26.272Z,18.00
2023-02-15T08:48:28.254Z,16.10
2023-02-15T08:53:31.830Z,17.97
2023-02-15T08:58:34.935Z,17.60
2023-02-15T09:03:37.247Z,17.53
2023-02-15T09:08:41.227Z,17.50
2023-02-15T09:13:44.086Z,18.20
2023-02-15T09:18:46.627Z,18.53
2023-02-15T09:23:51.667Z,20.13
2023-02-15T09:28:55.174Z,21.03
2023-02-15T09:33:57.630Z,20.70
2023-02-15T09:39:07.203Z,18.73
2023-02-15T09:44:22.063Z,20.93
2023-02-15T09:49:32.509Z,21.03
2023-02-15T09:54:49.881Z,20.90
2023-02-15T10:00:00.601Z,20.87
2023-02-15T10:05:16.797Z,19.30
2023-02-15T10:10:31.544Z,20.43
2023-02-15T10:15:54.417Z,19.07
2023-02-15T10:21:04.250Z,19.13
2023-02-15T10:26:17.843Z,18.17
2023-02-15T10:31:27.630Z,18.93
2023-02-15T10:36:44.630Z,16.77
2023-02-15T10:41:55.269Z,17.27
2023-02-15T10:47:18.498Z,14.57
2023-02-15T10:52:33.925Z,15.00
2023-02-15T10:57:45.742Z,14.63
2023-02-15T11:03:10.527Z,15.63
2023-02-15T11:08:13.875Z,14.97
2023-02-15T11:13:20.499Z,14.70
2023-02-15T11:18:29.284Z,13.13
2023-02-15T11:23:40.053Z,12.10
2023-02-15T11:28:48.512Z,11.83
2023-02-15T11:33:55.364Z,10.97
2023-02-15T11:39:02.028Z,11.93
2023-02-15T11:44:12.892Z,11.40
2023-02-15T11:49:24.704Z,11.53
2023-02-15T11:54:31.130Z,11.57
2023-02-15T11:59:38.593Z,11.07
2023-02-15T12:04:45.653Z,12.23
2023-02-15T12:09:53.191Z,11.30
2023-02-15T12:14:58.418Z,10.83
2023-02-15T12:20:03.604Z,11.20
2023-02-15T12:25:22.317Z,10.30
2023-02-15T12:36:03.580Z,8.93
2023-02-15T12:41:22.977Z,7.97
2023-02-15T12:46:27.524Z,7.10
2023-02-15T12:51:29.385Z,6.87
2023-02-15T12:56:31.246Z,6.93
2023-02-15T13:01:35.036Z,6.80
2023-02-15T13:06:37.969Z,6.37
2023-02-15T13:11:42.770Z,6.10
2023-02-15T13:16:48.581Z,5.20
2023-02-15T13:21:54.296Z,5.67
2023-02-15T13:27:14.665Z,6.07
2023-02-15T13:32:28.144Z,6.03
2023-02-15T13:37:51.904Z,5.57
2023-02-15T13:42:58.196Z,5.30
2023-02-15T13:48:12.835Z,5.17
2023-02-15T13:53:36.259Z,5.13
2023-02-15T13:59:00.025Z,4.63
2023-02-15T14:04:25.550Z,5.70
2023-02-15T14:09:41.867Z,6.37
2023-02-15T14:15:09.978Z,5.90
2023-02-15T14:20:21.408Z,5.87
2023-02-15T14:25:31.506Z,6.10
2023-02-15T14:30:38.005Z,5.63
2023-02-15T14:35:42.527Z,6.17
2023-02-15T14:40:54.789Z,6.07
2023-02-15T14:46:03.960Z,5.90
2023-02-15T14:51:07.658Z,5.80
2023-02-15T14:56:22.718Z,5.60
2023-02-15T15:01:28.879Z,5.20
2023-02-15T15:06:34.718Z,6.53
2023-02-15T15:11:44.838Z,5.73
2023-02-15T15:16:52.538Z,5.77
2023-02-15T15:22:04.573Z,5.87
2023-02-15T15:27:42.602Z,5.30
2023-02-15T15:32:52.160Z,8.63
2023-02-15T15:38:17.439Z,7.60
2023-02-15T15:43:59.633Z,5.37
2023-02-15T15:49:04.318Z,5.43
2023-02-15T15:54:15.013Z,5.87
2023-02-15T15:59:22.730Z,5.50
2023-02-15T16:04:27.570Z,4.97
2023-02-15T16:09:31.484Z,5.43
2023-02-15T16:14:37.215Z,5.23
2023-02-15T16:19:41.374Z,5.20
2023-02-15T16:25:14.030Z,5.03
2023-02-15T16:30:23.348Z,5.03
2023-02-15T16:35:55.632Z,4.40
2023-02-15T16:40:59.453Z,4.40
2023-02-15T16:46:05.883Z,4.23
2023-02-15T16:51:08.963Z,4.83
2023-02-15T16:56:12.473Z,5.23
2023-02-15T17:01:16.515Z,4.20
2023-02-15T17:06:23.585Z,4.70
2023-02-15T17:11:36.422Z,4.90
2023-02-15T17:16:51.335Z,5.17
2023-02-15T17:21:56.452Z,5.03
2023-02-15T17:27:04.889Z,5.10
2023-02-15T17:32:16.511Z,5.17
2023-02-15T17:37:30.016Z,5.53
2023-02-15T17:42:33.584Z,6.00
2023-02-15T17:47:36.054Z,6.37
2023-02-15T17:53:02.951Z,6.07
2023-02-15T17:58:22.346Z,5.70
2023-02-15T18:03:25.942Z,6.27
2023-02-15T18:08:28.879Z,5.50
2023-02-15T18:13:32.545Z,4.93
2023-02-15T18:18:34.694Z,5.63
2023-02-15T18:23:37.052Z,5.60
2023-02-15T18:34:26.942Z,5.53
2023-02-15T18:39:37.488Z,5.30
2023-02-15T18:44:42.267Z,6.03
2023-02-15T18:49:52.553Z,5.90
2023-02-15T18:55:04.850Z,5.97
2023-02-15T19:00:14.319Z,5.93
2023-02-15T19:05:16.896Z,6.77
2023-02-15T19:10:21.176Z,5.43
2023-02-15T19:15:26.269Z,7.03
2023-02-15T19:20:39.188Z,9.77
2023-02-15T19:25:42.518Z,10.00
2023-02-15T19:30:46.762Z,9.30
2023-02-15T19:35:56.413Z,9.20
2023-02-15T19:41:03.602Z,7.17
2023-02-15T19:46:15.251Z,8.50
2023-02-15T19:51:19.147Z,8.50
2023-02-15T19:56:23.717Z,8.37
2023-02-15T20:01:28.533Z,9.10
2023-02-15T20:06:31.116Z,7.53
2023-02-15T20:11:37.209Z,7.83
2023-02-15T20:16:42.077Z,10.57
2023-02-15T20:21:46.978Z,9.90
2023-02-15T20:26:49.957Z,9.53
2023-02-15T20:31:55.444Z,8.90
2023-02-15T20:36:58.083Z,8.57
2023-02-15T20:42:00.496Z,8.03
2023-02-15T20:47:04.546Z,7.57
2023-02-15T20:52:18.493Z,7.80
2023-02-15T20:57:21.309Z,7.20
2023-02-15T21:02:25.550Z,7.33
2023-02-15T21:07:28.153Z,8.47
2023-02-15T21:12:30.908Z,7.57
2023-02-15T21:17:34.986Z,7.83
2023-02-15T21:22:37.585Z,7.73
2023-02-15T21:27:40.141Z,8.20
2023-02-15T21:32:43.857Z,8.70
2023-02-15T21:37:48.533Z,7.63
2023-02-15T21:42:50.632Z,7.77
2023-02-15T21:47:53.792Z,8.33
2023-02-15T21:52:56.797Z,9.07
2023-02-15T21:57:58.927Z,8.53
2023-02-15T22:03:02.918Z,8.13
2023-02-15T22:08:11.422Z,8.10
2023-02-15T22:13:15.872Z,8.03
2023-02-15T22:18:22.280Z,8.03
2023-02-15T22:23:24.437Z,11.33
2023-02-15T22:28:31.996Z,11.87
2023-02-15T22:33:35.684Z,9.47
2023-02-15T22:38:38.046Z,8.60
2023-02-15T22:43:42.074Z,8.07
2023-02-15T22:48:47.151Z,8.80
2023-02-15T22:53:49.049Z,8.80
2023-02-15T22:58:50.858Z,8.00
2023-02-15T23:03:54.712Z,7.60
2023-02-15T23:08:56.940Z,9.00
2023-02-15T23:13:58.783Z,7.97
2023-02-15T23:19:02.910Z,7.43
2023-02-15T23:24:17.698Z,8.43
2023-02-15T23:29:21.942Z,7.47
2023-02-15T23:34:27.734Z,7.43
2023-02-15T23:39:30.080Z,7.80
2023-02-15T23:44:32.743Z,7.70
2023-02-15T23:49:36.182Z,8.47
2023-02-15T23:54:38.448Z,8.77
2023-02-15T23:59:44.269Z,8.27
